sensor_id;sensor_type;location;lat;lon;timestamp;P1;durP1;ratioP1;P2;durP2;ratioP2
34278;SDS011;20538;51.528;9.942;2024-03-02T00:00:00;22.58;;;11.07;;
34278;SDS011;20538;51.528;9.942;2024-03-02T00:02:34;24.92;;;10.13;;
34278;SDS011;20538;51.528;9.942;2024-03-02T00:05:11;28.40;;;11.07;;
34278;SDS011;20538;51.528;9.942;2024-03-02T00:07:37;26.27;;;11.48;;
34278;SDS011;20538;51.528;9.942;2024-03-02T00:10:23;34.13;;;12.68;;
34278;SDS011;20538;51.528;9.942;2024-03-02T00:12:54;32.03;;;13.02;;
34278;SDS011;20538;51.528;9.942;2024-03-02T00:18:13;26.40;;;11.27;;
34278;SDS011;20538;51.528;9.942;2024-03-02T00:20:41;25.38;;;10.77;;
34278;SDS011;20538;51.528;9.942;2024-03-02T00:23:08;27.08;;;11.13;;
34278;SDS011;20538;51.528;9.942;2024-03-02T00:25:41;29.75;;;11.73;;
34278;SDS011;20538;51.528;9.942;2024-03-02T00:28:16;26.55;;;10.75;;
34278;SDS011;20538;51.528;9.942;2024-03-02T00:33:33;29.70;;;11.40;;
34278;SDS011;20538;51.528;9.942;2024-03-02T00:36:05;28.48;;;10.23;;
34278;SDS011;20538;51.528;9.942;2024-03-02T00:38:32;29.60;;;11.23;;
34278;SDS011;20538;51.528;9.942;2024-03-02T00:40:58;27.08;;;10.80;;
34278;SDS011;20538;51.528;9.942;2024-03-02T00:46:07;34.15;;;11.02;;
34278;SDS011;20538;51.528;9.942;2024-03-02T00:48:34;30.27;;;12.65;;
34278;SDS011;20538;51.528;9.942;2024-03-02T00:51:03;30.05;;;11.13;;
34278;SDS011;20538;51.528;9.942;2024-03-02T00:53:32;30.77;;;12.48;;
34278;SDS011;20538;51.528;9.942;2024-03-02T00:55:58;27.08;;;12.15;;
34278;SDS011;20538;51.528;9.942;2024-03-02T00:58:24;31.58;;;11.38;;
34278;SDS011;20538;51.528;9.942;2024-03-02T01:00:50;24.95;;;11.10;;
34278;SDS011;20538;51.528;9.942;2024-03-02T01:03:16;26.75;;;12.15;;
34278;SDS011;20538;51.528;9.942;2024-03-02T01:05:42;28.80;;;12.32;;
34278;SDS011;20538;51.528;9.942;2024-03-02T01:08:08;28.05;;;11.90;;
34278;SDS011;20538;51.528;9.942;2024-03-02T01:10:35;30.33;;;12.45;;
34278;SDS011;20538;51.528;9.942;2024-03-02T01:13:01;29.30;;;12.13;;
34278;SDS011;20538;51.528;9.942;2024-03-02T01:15:26;34.78;;;12.18;;
34278;SDS011;20538;51.528;9.942;2024-03-02T01:17:52;26.08;;;10.75;;
34278;SDS011;20538;51.528;9.942;2024-03-02T01:20:18;22.13;;;11.32;;
34278;SDS011;20538;51.528;9.942;2024-03-02T01:22:43;31.58;;;12.80;;
34278;SDS011;20538;51.528;9.942;2024-03-02T01:25:09;28.77;;;12.05;;
34278;SDS011;20538;51.528;9.942;2024-03-02T01:27:35;29.80;;;12.20;;
34278;SDS011;20538;51.528;9.942;2024-03-02T01:30:00;29.67;;;11.05;;
34278;SDS011;20538;51.528;9.942;2024-03-02T01:32:26;28.70;;;12.15;;
34278;SDS011;20538;51.528;9.942;2024-03-02T01:34:52;33.70;;;11.35;;
34278;SDS011;20538;51.528;9.942;2024-03-02T01:37:17;29.33;;;13.80;;
34278;SDS011;20538;51.528;9.942;2024-03-02T01:39:43;28.52;;;11.80;;
34278;SDS011;20538;51.528;9.942;2024-03-02T01:42:08;28.05;;;11.93;;
34278;SDS011;20538;51.528;9.942;2024-03-02T01:44:35;24.98;;;11.25;;
34278;SDS011;20538;51.528;9.942;2024-03-02T01:47:01;24.90;;;10.90;;
34278;SDS011;20538;51.528;9.942;2024-03-02T01:49:27;25.85;;;11.07;;
34278;SDS011;20538;51.528;9.942;2024-03-02T01:51:52;29.85;;;11.75;;
34278;SDS011;20538;51.528;9.942;2024-03-02T01:54:18;27.63;;;11.85;;
34278;SDS011;20538;51.528;9.942;2024-03-02T01:56:44;29.73;;;12.80;;
34278;SDS011;20538;51.528;9.942;2024-03-02T01:59:10;31.15;;;11.57;;
34278;SDS011;20538;51.528;9.942;2024-03-02T02:01:36;23.10;;;11.02;;
34278;SDS011;20538;51.528;9.942;2024-03-02T02:04:01;27.88;;;10.90;;
34278;SDS011;20538;51.528;9.942;2024-03-02T02:06:27;26.80;;;11.27;;
34278;SDS011;20538;51.528;9.942;2024-03-02T02:08:53;26.25;;;10.65;;
34278;SDS011;20538;51.528;9.942;2024-03-02T02:11:18;30.38;;;11.20;;
34278;SDS011;20538;51.528;9.942;2024-03-02T02:13:44;31.50;;;11.77;;
34278;SDS011;20538;51.528;9.942;2024-03-02T02:16:10;23.13;;;10.65;;
34278;SDS011;20538;51.528;9.942;2024-03-02T02:18:35;26.50;;;10.60;;
34278;SDS011;20538;51.528;9.942;2024-03-02T02:21:02;20.95;;;9.77;;
34278;SDS011;20538;51.528;9.942;2024-03-02T02:23:28;33.30;;;12.15;;
34278;SDS011;20538;51.528;9.942;2024-03-02T02:25:54;29.40;;;11.77;;
34278;SDS011;20538;51.528;9.942;2024-03-02T02:28:19;25.20;;;10.70;;
34278;SDS011;20538;51.528;9.942;2024-03-02T02:30:45;35.63;;;12.57;;
34278;SDS011;20538;51.528;9.942;2024-03-02T02:33:11;36.40;;;12.52;;
34278;SDS011;20538;51.528;9.942;2024-03-02T02:35:36;28.17;;;12.30;;
34278;SDS011;20538;51.528;9.942;2024-03-02T02:38:02;32.28;;;10.85;;
34278;SDS011;20538;51.528;9.942;2024-03-02T02:40:28;24.80;;;11.10;;
34278;SDS011;20538;51.528;9.942;2024-03-02T02:42:57;21.38;;;9.65;;
34278;SDS011;20538;51.528;9.942;2024-03-02T02:45:24;25.35;;;11.30;;
34278;SDS011;20538;51.528;9.942;2024-03-02T02:47:50;23.80;;;10.32;;
34278;SDS011;20538;51.528;9.942;2024-03-02T02:50:15;28.25;;;10.93;;
34278;SDS011;20538;51.528;9.942;2024-03-02T02:52:41;23.75;;;11.30;;
34278;SDS011;20538;51.528;9.942;2024-03-02T02:55:08;20.13;;;9.73;;
34278;SDS011;20538;51.528;9.942;2024-03-02T02:57:35;25.90;;;9.82;;
34278;SDS011;20538;51.528;9.942;2024-03-02T03:00:06;23.50;;;9.98;;
34278;SDS011;20538;51.528;9.942;2024-03-02T03:02:40;22.05;;;9.35;;
34278;SDS011;20538;51.528;9.942;2024-03-02T03:05:08;25.35;;;10.68;;
34278;SDS011;20538;51.528;9.942;2024-03-02T03:07:34;24.92;;;10.70;;
34278;SDS011;20538;51.528;9.942;2024-03-02T03:10:01;22.30;;;10.18;;
34278;SDS011;20538;51.528;9.942;2024-03-02T03:12:28;24.02;;;11.27;;
34278;SDS011;20538;51.528;9.942;2024-03-02T03:14:54;21.25;;;10.25;;
34278;SDS011;20538;51.528;9.942;2024-03-02T03:17:21;23.08;;;10.73;;
34278;SDS011;20538;51.528;9.942;2024-03-02T03:19:46;23.88;;;10.52;;
34278;SDS011;20538;51.528;9.942;2024-03-02T03:22:12;27.95;;;10.98;;
34278;SDS011;20538;51.528;9.942;2024-03-02T03:24:38;21.95;;;10.70;;
34278;SDS011;20538;51.528;9.942;2024-03-02T03:27:04;26.52;;;10.30;;
34278;SDS011;20538;51.528;9.942;2024-03-02T03:29:29;16.10;;;8.93;;
34278;SDS011;20538;51.528;9.942;2024-03-02T03:31:55;22.45;;;10.35;;
34278;SDS011;20538;51.528;9.942;2024-03-02T03:34:21;26.45;;;11.40;;
34278;SDS011;20538;51.528;9.942;2024-03-02T03:36:46;21.58;;;9.70;;
34278;SDS011;20538;51.528;9.942;2024-03-02T03:39:12;23.63;;;9.35;;
34278;SDS011;20538;51.528;9.942;2024-03-02T03:41:38;22.05;;;9.10;;
34278;SDS011;20538;51.528;9.942;2024-03-02T03:44:05;23.85;;;9.63;;
34278;SDS011;20538;51.528;9.942;2024-03-02T03:46:30;20.35;;;10.18;;
34278;SDS011;20538;51.528;9.942;2024-03-02T03:48:56;23.13;;;9.90;;
34278;SDS011;20538;51.528;9.942;2024-03-02T03:51:21;21.30;;;9.20;;
34278;SDS011;20538;51.528;9.942;2024-03-02T03:53:50;24.38;;;9.32;;
34278;SDS011;20538;51.528;9.942;2024-03-02T03:56:15;20.10;;;9.68;;
34278;SDS011;20538;51.528;9.942;2024-03-02T03:58:41;20.85;;;8.93;;
34278;SDS011;20538;51.528;9.942;2024-03-02T04:01:07;24.13;;;10.02;;
34278;SDS011;20538;51.528;9.942;2024-03-02T04:03:33;25.33;;;10.70;;
34278;SDS011;20538;51.528;9.942;2024-03-02T04:05:58;20.52;;;9.27;;
34278;SDS011;20538;51.528;9.942;2024-03-02T04:08:24;22.92;;;10.30;;
34278;SDS011;20538;51.528;9.942;2024-03-02T04:10:50;18.58;;;8.93;;
34278;SDS011;20538;51.528;9.942;2024-03-02T04:13:15;22.30;;;9.70;;
34278;SDS011;20538;51.528;9.942;2024-03-02T04:15:41;22.35;;;8.32;;
34278;SDS011;20538;51.528;9.942;2024-03-02T04:18:06;21.27;;;9.45;;
34278;SDS011;20538;51.528;9.942;2024-03-02T04:20:32;24.48;;;10.38;;
34278;SDS011;20538;51.528;9.942;2024-03-02T04:22:58;16.45;;;8.80;;
34278;SDS011;20538;51.528;9.942;2024-03-02T04:25:23;16.30;;;7.95;;
34278;SDS011;20538;51.528;9.942;2024-03-02T04:27:49;24.13;;;10.30;;
34278;SDS011;20538;51.528;9.942;2024-03-02T04:30:14;22.17;;;9.52;;
34278;SDS011;20538;51.528;9.942;2024-03-02T04:32:40;15.50;;;8.18;;
34278;SDS011;20538;51.528;9.942;2024-03-02T04:35:06;22.48;;;9.27;;
34278;SDS011;20538;51.528;9.942;2024-03-02T04:37:35;20.50;;;8.85;;
34278;SDS011;20538;51.528;9.942;2024-03-02T04:40:00;21.77;;;10.60;;
34278;SDS011;20538;51.528;9.942;2024-03-02T04:42:26;21.20;;;9.23;;
34278;SDS011;20538;51.528;9.942;2024-03-02T04:44:52;19.60;;;9.57;;
34278;SDS011;20538;51.528;9.942;2024-03-02T04:47:17;27.80;;;10.25;;
34278;SDS011;20538;51.528;9.942;2024-03-02T04:49:43;23.17;;;9.35;;
34278;SDS011;20538;51.528;9.942;2024-03-02T04:52:08;18.92;;;8.38;;
34278;SDS011;20538;51.528;9.942;2024-03-02T04:54:34;23.42;;;8.60;;
34278;SDS011;20538;51.528;9.942;2024-03-02T04:57:20;21.08;;;8.98;;
34278;SDS011;20538;51.528;9.942;2024-03-02T04:59:45;20.15;;;9.10;;
34278;SDS011;20538;51.528;9.942;2024-03-02T05:02:11;22.08;;;10.15;;
34278;SDS011;20538;51.528;9.942;2024-03-02T05:04:39;23.20;;;9.93;;
34278;SDS011;20538;51.528;9.942;2024-03-02T05:07:05;22.35;;;9.20;;
34278;SDS011;20538;51.528;9.942;2024-03-02T05:09:31;22.35;;;9.88;;
34278;SDS011;20538;51.528;9.942;2024-03-02T05:11:56;24.90;;;9.43;;
34278;SDS011;20538;51.528;9.942;2024-03-02T05:14:40;24.05;;;9.57;;
34278;SDS011;20538;51.528;9.942;2024-03-02T05:17:06;21.88;;;8.90;;
34278;SDS011;20538;51.528;9.942;2024-03-02T05:19:32;23.30;;;10.40;;
34278;SDS011;20538;51.528;9.942;2024-03-02T05:21:57;21.60;;;9.60;;
34278;SDS011;20538;51.528;9.942;2024-03-02T05:24:23;29.58;;;9.05;;
34278;SDS011;20538;51.528;9.942;2024-03-02T05:26:48;29.92;;;11.45;;
34278;SDS011;20538;51.528;9.942;2024-03-02T05:29:14;30.40;;;11.75;;
34278;SDS011;20538;51.528;9.942;2024-03-02T05:31:40;23.75;;;10.70;;
34278;SDS011;20538;51.528;9.942;2024-03-02T05:34:05;27.13;;;10.00;;
34278;SDS011;20538;51.528;9.942;2024-03-02T05:36:31;22.38;;;10.00;;
34278;SDS011;20538;51.528;9.942;2024-03-02T05:38:57;20.77;;;8.88;;
34278;SDS011;20538;51.528;9.942;2024-03-02T05:41:22;26.40;;;10.30;;
34278;SDS011;20538;51.528;9.942;2024-03-02T05:43:48;25.77;;;10.57;;
34278;SDS011;20538;51.528;9.942;2024-03-02T05:46:14;26.50;;;10.65;;
34278;SDS011;20538;51.528;9.942;2024-03-02T05:48:40;26.13;;;10.90;;
34278;SDS011;20538;51.528;9.942;2024-03-02T05:51:06;29.40;;;11.10;;
34278;SDS011;20538;51.528;9.942;2024-03-02T05:53:31;31.27;;;12.18;;
34278;SDS011;20538;51.528;9.942;2024-03-02T05:55:57;28.38;;;10.85;;
34278;SDS011;20538;51.528;9.942;2024-03-02T05:58:22;32.40;;;11.88;;
34278;SDS011;20538;51.528;9.942;2024-03-02T06:01:06;30.42;;;11.98;;
34278;SDS011;20538;51.528;9.942;2024-03-02T06:03:32;29.23;;;11.60;;
34278;SDS011;20538;51.528;9.942;2024-03-02T06:05:58;20.73;;;9.43;;
34278;SDS011;20538;51.528;9.942;2024-03-02T06:08:24;29.02;;;11.43;;
34278;SDS011;20538;51.528;9.942;2024-03-02T06:10:50;29.92;;;11.70;;
34278;SDS011;20538;51.528;9.942;2024-03-02T06:13:16;29.75;;;11.02;;
34278;SDS011;20538;51.528;9.942;2024-03-02T06:15:41;26.98;;;12.57;;
34278;SDS011;20538;51.528;9.942;2024-03-02T06:18:07;30.50;;;10.93;;
34278;SDS011;20538;51.528;9.942;2024-03-02T06:20:33;29.95;;;11.57;;
34278;SDS011;20538;51.528;9.942;2024-03-02T06:22:59;27.00;;;9.65;;
34278;SDS011;20538;51.528;9.942;2024-03-02T06:25:24;28.23;;;12.18;;
34278;SDS011;20538;51.528;9.942;2024-03-02T06:27:50;23.15;;;10.95;;
34278;SDS011;20538;51.528;9.942;2024-03-02T06:30:16;31.95;;;11.73;;
34278;SDS011;20538;51.528;9.942;2024-03-02T06:32:41;29.25;;;11.43;;
34278;SDS011;20538;51.528;9.942;2024-03-02T06:35:07;20.58;;;10.50;;
34278;SDS011;20538;51.528;9.942;2024-03-02T06:37:35;36.75;;;12.00;;
34278;SDS011;20538;51.528;9.942;2024-03-02T06:40:07;24.63;;;10.70;;
34278;SDS011;20538;51.528;9.942;2024-03-02T06:42:33;26.27;;;11.50;;
34278;SDS011;20538;51.528;9.942;2024-03-02T06:44:59;29.55;;;12.40;;
34278;SDS011;20538;51.528;9.942;2024-03-02T06:47:25;32.95;;;12.05;;
34278;SDS011;20538;51.528;9.942;2024-03-02T06:49:51;25.70;;;12.05;;
34278;SDS011;20538;51.528;9.942;2024-03-02T06:52:16;25.33;;;10.93;;
34278;SDS011;20538;51.528;9.942;2024-03-02T06:54:42;28.65;;;11.30;;
34278;SDS011;20538;51.528;9.942;2024-03-02T06:57:07;27.65;;;12.05;;
34278;SDS011;20538;51.528;9.942;2024-03-02T06:59:33;29.08;;;12.00;;
34278;SDS011;20538;51.528;9.942;2024-03-02T07:01:59;26.98;;;11.63;;
34278;SDS011;20538;51.528;9.942;2024-03-02T07:04:25;29.17;;;12.30;;
34278;SDS011;20538;51.528;9.942;2024-03-02T07:06:51;30.30;;;12.70;;
34278;SDS011;20538;51.528;9.942;2024-03-02T07:09:17;27.10;;;11.95;;
34278;SDS011;20538;51.528;9.942;2024-03-02T07:11:42;28.02;;;11.70;;
34278;SDS011;20538;51.528;9.942;2024-03-02T07:14:08;22.63;;;9.65;;
34278;SDS011;20538;51.528;9.942;2024-03-02T07:16:34;28.02;;;11.98;;
34278;SDS011;20538;51.528;9.942;2024-03-02T07:19:03;24.90;;;10.88;;
34278;SDS011;20538;51.528;9.942;2024-03-02T07:21:28;28.42;;;10.30;;
34278;SDS011;20538;51.528;9.942;2024-03-02T07:23:54;27.10;;;11.43;;
34278;SDS011;20538;51.528;9.942;2024-03-02T07:26:20;32.78;;;11.63;;
34278;SDS011;20538;51.528;9.942;2024-03-02T07:28:46;28.25;;;12.38;;
34278;SDS011;20538;51.528;9.942;2024-03-02T07:31:13;27.33;;;11.50;;
34278;SDS011;20538;51.528;9.942;2024-03-02T07:33:39;24.83;;;10.32;;
34278;SDS011;20538;51.528;9.942;2024-03-02T07:36:04;29.02;;;12.18;;
34278;SDS011;20538;51.528;9.942;2024-03-02T07:38:31;25.98;;;10.98;;
34278;SDS011;20538;51.528;9.942;2024-03-02T07:40:59;24.98;;;10.45;;
34278;SDS011;20538;51.528;9.942;2024-03-02T07:43:25;28.70;;;11.77;;
34278;SDS011;20538;51.528;9.942;2024-03-02T07:45:51;26.60;;;10.38;;
34278;SDS011;20538;51.528;9.942;2024-03-02T07:48:17;25.00;;;10.57;;
34278;SDS011;20538;51.528;9.942;2024-03-02T07:50:42;27.55;;;12.55;;
34278;SDS011;20538;51.528;9.942;2024-03-02T07:53:08;34.40;;;14.18;;
34278;SDS011;20538;51.528;9.942;2024-03-02T07:55:34;39.88;;;10.68;;
34278;SDS011;20538;51.528;9.942;2024-03-02T07:58:00;24.67;;;11.35;;
34278;SDS011;20538;51.528;9.942;2024-03-02T08:00:26;28.45;;;11.90;;
34278;SDS011;20538;51.528;9.942;2024-03-02T08:02:52;28.38;;;11.90;;
34278;SDS011;20538;51.528;9.942;2024-03-02T08:05:18;25.73;;;11.43;;
34278;SDS011;20538;51.528;9.942;2024-03-02T08:07:44;33.55;;;11.20;;
34278;SDS011;20538;51.528;9.942;2024-03-02T08:10:11;26.40;;;11.82;;
34278;SDS011;20538;51.528;9.942;2024-03-02T08:12:37;27.52;;;11.40;;
34278;SDS011;20538;51.528;9.942;2024-03-02T08:15:03;27.42;;;11.20;;
34278;SDS011;20538;51.528;9.942;2024-03-02T08:17:29;27.85;;;11.90;;
34278;SDS011;20538;51.528;9.942;2024-03-02T08:19:55;26.10;;;11.10;;
34278;SDS011;20538;51.528;9.942;2024-03-02T08:22:21;35.88;;;11.95;;
34278;SDS011;20538;51.528;9.942;2024-03-02T08:24:48;21.85;;;11.15;;
34278;SDS011;20538;51.528;9.942;2024-03-02T08:27:13;30.10;;;11.63;;
34278;SDS011;20538;51.528;9.942;2024-03-02T08:29:40;26.17;;;12.00;;
34278;SDS011;20538;51.528;9.942;2024-03-02T08:32:06;27.63;;;12.35;;
34278;SDS011;20538;51.528;9.942;2024-03-02T08:34:32;29.02;;;11.52;;
34278;SDS011;20538;51.528;9.942;2024-03-02T08:36:58;28.05;;;12.70;;
34278;SDS011;20538;51.528;9.942;2024-03-02T08:39:24;24.48;;;11.13;;
34278;SDS011;20538;51.528;9.942;2024-03-02T08:41:50;23.67;;;9.10;;
34278;SDS011;20538;51.528;9.942;2024-03-02T08:44:16;23.60;;;10.38;;
34278;SDS011;20538;51.528;9.942;2024-03-02T08:46:42;23.55;;;10.35;;
34278;SDS011;20538;51.528;9.942;2024-03-02T08:49:08;25.15;;;9.95;;
34278;SDS011;20538;51.528;9.942;2024-03-02T08:51:34;21.15;;;9.30;;
34278;SDS011;20538;51.528;9.942;2024-03-02T08:54:00;22.98;;;10.80;;
34278;SDS011;20538;51.528;9.942;2024-03-02T08:56:25;25.52;;;9.63;;
34278;SDS011;20538;51.528;9.942;2024-03-02T08:58:51;21.75;;;9.48;;
34278;SDS011;20538;51.528;9.942;2024-03-02T09:01:18;22.55;;;10.18;;
34278;SDS011;20538;51.528;9.942;2024-03-02T09:03:44;20.15;;;8.98;;
34278;SDS011;20538;51.528;9.942;2024-03-02T09:06:10;27.70;;;9.48;;
34278;SDS011;20538;51.528;9.942;2024-03-02T09:08:37;23.23;;;9.13;;
34278;SDS011;20538;51.528;9.942;2024-03-02T09:11:04;23.35;;;9.38;;
34278;SDS011;20538;51.528;9.942;2024-03-02T09:13:30;16.40;;;8.60;;
34278;SDS011;20538;51.528;9.942;2024-03-02T09:15:56;19.75;;;8.75;;
34278;SDS011;20538;51.528;9.942;2024-03-02T09:18:22;19.90;;;9.50;;
34278;SDS011;20538;51.528;9.942;2024-03-02T09:20:47;17.52;;;8.10;;
34278;SDS011;20538;51.528;9.942;2024-03-02T09:23:13;15.38;;;8.10;;
34278;SDS011;20538;51.528;9.942;2024-03-02T09:25:39;19.90;;;8.05;;
34278;SDS011;20538;51.528;9.942;2024-03-02T09:28:05;17.92;;;8.35;;
34278;SDS011;20538;51.528;9.942;2024-03-02T09:30:32;17.02;;;7.60;;
34278;SDS011;20538;51.528;9.942;2024-03-02T09:32:58;16.17;;;7.47;;
34278;SDS011;20538;51.528;9.942;2024-03-02T09:35:23;23.67;;;8.77;;
34278;SDS011;20538;51.528;9.942;2024-03-02T09:37:49;20.05;;;8.75;;
34278;SDS011;20538;51.528;9.942;2024-03-02T09:40:15;18.20;;;8.93;;
34278;SDS011;20538;51.528;9.942;2024-03-02T09:42:41;21.08;;;7.97;;
34278;SDS011;20538;51.528;9.942;2024-03-02T09:45:08;19.67;;;8.82;;
34278;SDS011;20538;51.528;9.942;2024-03-02T09:47:34;16.60;;;7.57;;
34278;SDS011;20538;51.528;9.942;2024-03-02T09:50:00;23.67;;;8.63;;
34278;SDS011;20538;51.528;9.942;2024-03-02T09:52:26;18.00;;;8.95;;
34278;SDS011;20538;51.528;9.942;2024-03-02T09:54:52;16.83;;;7.25;;
34278;SDS011;20538;51.528;9.942;2024-03-02T09:57:17;19.95;;;7.97;;
34278;SDS011;20538;51.528;9.942;2024-03-02T09:59:43;18.52;;;8.20;;
34278;SDS011;20538;51.528;9.942;2024-03-02T10:02:10;13.02;;;6.32;;
34278;SDS011;20538;51.528;9.942;2024-03-02T10:04:36;12.75;;;6.30;;
34278;SDS011;20538;51.528;9.942;2024-03-02T10:09:41;12.40;;;6.68;;
34278;SDS011;20538;51.528;9.942;2024-03-02T10:12:08;15.20;;;5.85;;
34278;SDS011;20538;51.528;9.942;2024-03-02T10:14:41;14.00;;;6.50;;
34278;SDS011;20538;51.528;9.942;2024-03-02T10:17:08;11.10;;;5.97;;
34278;SDS011;20538;51.528;9.942;2024-03-02T10:19:35;16.85;;;6.13;;
34278;SDS011;20538;51.528;9.942;2024-03-02T10:22:02;14.45;;;6.45;;
34278;SDS011;20538;51.528;9.942;2024-03-02T10:24:40;14.85;;;6.07;;
34278;SDS011;20538;51.528;9.942;2024-03-02T10:29:39;11.63;;;5.38;;
34278;SDS011;20538;51.528;9.942;2024-03-02T10:32:09;10.25;;;4.95;;
34278;SDS011;20538;51.528;9.942;2024-03-02T10:34:41;9.10;;;4.90;;
34278;SDS011;20538;51.528;9.942;2024-03-02T10:37:08;8.80;;;4.60;;
34278;SDS011;20538;51.528;9.942;2024-03-02T10:39:35;11.75;;;4.68;;
34278;SDS011;20538;51.528;9.942;2024-03-02T10:42:01;10.50;;;5.18;;
34278;SDS011;20538;51.528;9.942;2024-03-02T10:44:30;13.80;;;4.43;;
34278;SDS011;20538;51.528;9.942;2024-03-02T10:46:58;12.70;;;5.47;;
34278;SDS011;20538;51.528;9.942;2024-03-02T10:49:30;9.43;;;4.68;;
34278;SDS011;20538;51.528;9.942;2024-03-02T10:51:57;11.60;;;4.93;;
34278;SDS011;20538;51.528;9.942;2024-03-02T10:54:26;10.65;;;5.68;;
34278;SDS011;20538;51.528;9.942;2024-03-02T10:56:54;10.73;;;4.72;;
34278;SDS011;20538;51.528;9.942;2024-03-02T11:02:02;10.77;;;4.80;;
34278;SDS011;20538;51.528;9.942;2024-03-02T11:04:31;6.45;;;4.28;;
34278;SDS011;20538;51.528;9.942;2024-03-02T11:07:02;12.10;;;4.70;;
34278;SDS011;20538;51.528;9.942;2024-03-02T11:09:36;8.50;;;4.57;;
34278;SDS011;20538;51.528;9.942;2024-03-02T11:12:19;10.18;;;4.90;;
34278;SDS011;20538;51.528;9.942;2024-03-02T11:14:48;9.68;;;4.88;;
34278;SDS011;20538;51.528;9.942;2024-03-02T11:17:16;11.27;;;4.32;;
34278;SDS011;20538;51.528;9.942;2024-03-02T11:19:43;8.73;;;4.40;;
34278;SDS011;20538;51.528;9.942;2024-03-02T11:22:10;13.10;;;4.78;;
34278;SDS011;20538;51.528;9.942;2024-03-02T11:24:37;10.88;;;4.68;;
34278;SDS011;20538;51.528;9.942;2024-03-02T11:27:03;10.50;;;4.93;;
34278;SDS011;20538;51.528;9.942;2024-03-02T11:32:02;8.70;;;4.47;;
34278;SDS011;20538;51.528;9.942;2024-03-02T11:34:30;9.23;;;3.97;;
34278;SDS011;20538;51.528;9.942;2024-03-02T11:37:03;8.95;;;4.75;;
34278;SDS011;20538;51.528;9.942;2024-03-02T11:39:29;7.50;;;4.05;;
34278;SDS011;20538;51.528;9.942;2024-03-02T11:41:56;7.40;;;3.72;;
34278;SDS011;20538;51.528;9.942;2024-03-02T11:44:22;10.10;;;3.97;;
34278;SDS011;20538;51.528;9.942;2024-03-02T11:47:00;7.82;;;3.78;;
34278;SDS011;20538;51.528;9.942;2024-03-02T11:52:06;7.15;;;4.18;;
34278;SDS011;20538;51.528;9.942;2024-03-02T11:54:33;10.35;;;4.70;;
34278;SDS011;20538;51.528;9.942;2024-03-02T11:57:04;8.63;;;4.40;;
34278;SDS011;20538;51.528;9.942;2024-03-02T11:59:31;7.88;;;3.80;;
34278;SDS011;20538;51.528;9.942;2024-03-02T12:01:57;9.57;;;4.53;;
34278;SDS011;20538;51.528;9.942;2024-03-02T12:04:24;8.80;;;4.35;;
34278;SDS011;20538;51.528;9.942;2024-03-02T12:06:55;8.15;;;3.83;;
34278;SDS011;20538;51.528;9.942;2024-03-02T12:09:25;8.73;;;4.10;;
34278;SDS011;20538;51.528;9.942;2024-03-02T12:12:01;10.70;;;3.72;;
34278;SDS011;20538;51.528;9.942;2024-03-02T12:14:31;7.35;;;4.28;;
34278;SDS011;20538;51.528;9.942;2024-03-02T12:16:58;9.07;;;4.45;;
34278;SDS011;20538;51.528;9.942;2024-03-02T12:19:27;9.63;;;4.50;;
34278;SDS011;20538;51.528;9.942;2024-03-02T12:21:56;6.97;;;3.60;;
34278;SDS011;20538;51.528;9.942;2024-03-02T12:24:22;8.88;;;4.40;;
34278;SDS011;20538;51.528;9.942;2024-03-02T12:26:51;11.65;;;3.50;;
34278;SDS011;20538;51.528;9.942;2024-03-02T12:29:18;7.70;;;3.75;;
34278;SDS011;20538;51.528;9.942;2024-03-02T12:31:47;9.13;;;4.03;;
34278;SDS011;20538;51.528;9.942;2024-03-02T12:34:13;5.65;;;3.40;;
34278;SDS011;20538;51.528;9.942;2024-03-02T12:36:41;7.20;;;2.63;;
34278;SDS011;20538;51.528;9.942;2024-03-02T12:39:08;8.85;;;3.40;;
34278;SDS011;20538;51.528;9.942;2024-03-02T12:41:38;8.90;;;3.88;;
34278;SDS011;20538;51.528;9.942;2024-03-02T12:44:04;5.90;;;3.50;;
34278;SDS011;20538;51.528;9.942;2024-03-02T12:46:31;5.18;;;3.15;;
34278;SDS011;20538;51.528;9.942;2024-03-02T12:49:04;5.07;;;3.05;;
34278;SDS011;20538;51.528;9.942;2024-03-02T12:51:34;6.35;;;3.15;;
34278;SDS011;20538;51.528;9.942;2024-03-02T12:54:01;5.68;;;2.70;;
34278;SDS011;20538;51.528;9.942;2024-03-02T12:56:28;6.40;;;2.80;;
34278;SDS011;20538;51.528;9.942;2024-03-02T12:58:55;9.32;;;2.78;;
34278;SDS011;20538;51.528;9.942;2024-03-02T13:01:21;6.15;;;2.78;;
34278;SDS011;20538;51.528;9.942;2024-03-02T13:03:49;4.63;;;2.45;;
34278;SDS011;20538;51.528;9.942;2024-03-02T13:06:16;7.10;;;2.67;;
34278;SDS011;20538;51.528;9.942;2024-03-02T13:08:42;6.30;;;2.28;;
34278;SDS011;20538;51.528;9.942;2024-03-02T13:11:09;4.00;;;1.90;;
34278;SDS011;20538;51.528;9.942;2024-03-02T13:13:35;4.45;;;2.35;;
34278;SDS011;20538;51.528;9.942;2024-03-02T13:16:01;5.13;;;2.90;;
34278;SDS011;20538;51.528;9.942;2024-03-02T13:18:28;3.80;;;2.08;;
34278;SDS011;20538;51.528;9.942;2024-03-02T13:20:56;4.07;;;2.28;;
34278;SDS011;20538;51.528;9.942;2024-03-02T13:23:22;5.75;;;2.78;;
34278;SDS011;20538;51.528;9.942;2024-03-02T13:25:48;4.93;;;2.50;;
34278;SDS011;20538;51.528;9.942;2024-03-02T13:28:13;2.45;;;1.23;;
34278;SDS011;20538;51.528;9.942;2024-03-02T13:30:39;2.75;;;1.25;;
34278;SDS011;20538;51.528;9.942;2024-03-02T13:33:04;3.05;;;1.67;;
34278;SDS011;20538;51.528;9.942;2024-03-02T13:35:30;9.48;;;3.20;;
34278;SDS011;20538;51.528;9.942;2024-03-02T13:37:56;5.72;;;3.53;;
34278;SDS011;20538;51.528;9.942;2024-03-02T13:40:21;7.25;;;3.70;;
34278;SDS011;20538;51.528;9.942;2024-03-02T13:42:48;7.20;;;3.08;;
34278;SDS011;20538;51.528;9.942;2024-03-02T13:45:15;4.57;;;1.98;;
34278;SDS011;20538;51.528;9.942;2024-03-02T13:47:43;3.22;;;1.88;;
34278;SDS011;20538;51.528;9.942;2024-03-02T13:50:09;3.50;;;1.50;;
34278;SDS011;20538;51.528;9.942;2024-03-02T13:52:34;2.17;;;1.45;;
34278;SDS011;20538;51.528;9.942;2024-03-02T13:55:00;4.07;;;2.25;;
34278;SDS011;20538;51.528;9.942;2024-03-02T13:57:25;6.05;;;1.70;;
34278;SDS011;20538;51.528;9.942;2024-03-02T13:59:51;3.47;;;1.75;;
34278;SDS011;20538;51.528;9.942;2024-03-02T14:02:17;2.42;;;1.48;;
34278;SDS011;20538;51.528;9.942;2024-03-02T14:04:43;3.20;;;0.98;;
34278;SDS011;20538;51.528;9.942;2024-03-02T14:07:09;5.13;;;1.67;;
34278;SDS011;20538;51.528;9.942;2024-03-02T14:09:37;1.75;;;1.10;;
34278;SDS011;20538;51.528;9.942;2024-03-02T14:12:03;1.42;;;0.98;;
34278;SDS011;20538;51.528;9.942;2024-03-02T14:14:33;1.23;;;0.90;;
34278;SDS011;20538;51.528;9.942;2024-03-02T14:16:59;2.80;;;1.20;;
34278;SDS011;20538;51.528;9.942;2024-03-02T14:19:28;2.13;;;1.25;;
34278;SDS011;20538;51.528;9.942;2024-03-02T14:21:54;1.80;;;1.10;;
34278;SDS011;20538;51.528;9.942;2024-03-02T14:24:21;2.92;;;1.27;;
34278;SDS011;20538;51.528;9.942;2024-03-02T14:26:50;3.42;;;1.60;;
34278;SDS011;20538;51.528;9.942;2024-03-02T14:29:19;2.53;;;1.05;;
34278;SDS011;20538;51.528;9.942;2024-03-02T14:31:44;2.65;;;1.40;;
34278;SDS011;20538;51.528;9.942;2024-03-02T14:34:13;1.40;;;0.88;;
34278;SDS011;20538;51.528;9.942;2024-03-02T14:36:39;1.45;;;1.08;;
34278;SDS011;20538;51.528;9.942;2024-03-02T14:39:06;0.82;;;0.73;;
34278;SDS011;20538;51.528;9.942;2024-03-02T14:41:35;1.38;;;0.93;;
34278;SDS011;20538;51.528;9.942;2024-03-02T14:44:01;2.15;;;0.93;;
34278;SDS011;20538;51.528;9.942;2024-03-02T14:46:27;3.22;;;1.17;;
34278;SDS011;20538;51.528;9.942;2024-03-02T14:48:53;1.38;;;0.90;;